This is the latest recevied weather packets stored in our database for station/object K7GFH-13. If no packets are shown the sender has not sent any weather packets the latest 10 day(s).
| Time | Temp. | Humidity | Pressure | Rain* | Wind** | Luminosity | Snow |
|---|---|---|---|---|---|---|---|
| 1777760432 | 19.44° C | 64% | 1014.6 hPa | 0 mm | - | 647 W/m² | - |
| 1777759531 | 18.89° C | 64% | 1015.1 hPa | 0 mm | - | 608 W/m² | - |
| 1777758628 | 18.33° C | 66% | 1015.2 hPa | 0 mm | - | 667 W/m² | - |
| 1777757725 | 18.33° C | 68% | 1015.4 hPa | 0 mm | - | 708 W/m² | - |
| 1777756825 | 17.78° C | 67% | 1015.5 hPa | 0 mm | - | 714 W/m² | - |
| 1777755921 | 17.22° C | 70% | 1015.6 hPa | 0 mm | - | 729 W/m² | - |
| 1777755017 | 17.22° C | 68% | 1016 hPa | 0 mm | - | 677 W/m² | - |
| 1777754115 | 16.67° C | 72% | 1016.3 hPa | 0 mm | - | 736 W/m² | - |
| 1777753212 | 15.56° C | 74% | 1016.4 hPa | 0 mm | - | 744 W/m² | - |
| 1777752312 | 16.11° C | 74% | 1016.6 hPa | 0 mm | - | 374 W/m² | - |
| 1777751409 | 15° C | 76% | 1016.8 hPa | 0 mm | - | 429 W/m² | - |
| 1777750506 | 13.89° C | 78% | 1016.8 hPa | 0 mm | - | 498 W/m² | - |
| 1777749601 | 13.89° C | 80% | 1017 hPa | 0 mm | - | 335 W/m² | - |
| 1777748699 | 13.33° C | 83% | 1017 hPa | 0 mm | - | 273 W/m² | - |
| 1777747794 | 13.33° C | 80% | 1017.2 hPa | 0 mm | - | 365 W/m² | - |
| 1777746894 | 12.22° C | 84% | 1017.1 hPa | 0 mm | - | 322 W/m² | - |
| 1777745994 | 11.67° C | 86% | 1017.4 hPa | 0 mm | - | 226 W/m² | - |
| 1777745093 | 12.22° C | 85% | 1017.5 hPa | 0 mm | - | 230 W/m² | - |
| 1777744192 | 11.67° C | 85% | 1017.6 hPa | 0 mm | - | 215 W/m² | - |
| 1777743289 | 11.67° C | 85% | 1017.7 hPa | 0 mm | - | 294 W/m² | - |
| 1777742386 | 11.67° C | 86% | 1018.1 hPa | 0 mm | - | 131 W/m² | - |
| 1777741482 | 11.11° C | 87% | 1017.9 hPa | 0 mm | - | 166 W/m² | - |
| 1777740578 | 10.56° C | 88% | 1017.7 hPa | 0 mm | - | 161 W/m² | - |
| 1777739678 | 10.56° C | 89% | 1017.7 hPa | 0 mm | - | 160 W/m² | - |
| 1777738776 | 10.56° C | 89% | 1017.8 hPa | 0 mm | - | 147 W/m² | - |
* Rain latest hour (hover to see other rain measurements)
** Current wind speed in m/s (hover to see current wind gust speed)